Time;durP1;ratioP1;P1;durP2;ratioP2;P2;SDS_P1;SDS_P2;PMS_P1;PMS_P2;Temp;Humidity;BMP_temperature;BMP_pressure;BME280_temperature;BME280_humidity;BME280_pressure;Samples;Min_cycle;Max_cycle;Signal;HPM_P1;HPM_P2
2022/10/23 00:02:14;;;;;;;32.60;16.55;;;10.00;99.90;;;;;;5055299;28;20056;-73
2022/10/23 00:04:40;;;;;;;47.00;19.67;;;10.00;99.90;;;;;;5054909;28;20049;-71
2022/10/23 00:07:06;;;;;;;33.95;16.73;;;10.10;99.90;;;;;;5054694;28;20470;-72
2022/10/23 00:09:31;;;;;;;31.75;18.10;;;10.00;99.90;;;;;;5055392;28;20068;-72
2022/10/23 00:11:57;;;;;;;34.90;17.20;;;10.10;99.90;;;;;;5054714;28;20128;-71
2022/10/23 00:14:23;;;;;;;30.50;16.13;;;10.00;99.90;;;;;;5054722;28;20472;-71
2022/10/23 00:16:49;;;;;;;26.50;15.65;;;10.00;99.90;;;;;;5036849;28;20044;-73
2022/10/23 00:19:15;;;;;;;35.22;15.23;;;10.00;99.90;;;;;;5037206;28;20048;-71
2022/10/23 00:21:41;;;;;;;34.72;15.80;;;10.00;99.90;;;;;;5054939;28;20060;-72
2022/10/23 00:24:07;;;;;;;29.58;16.02;;;10.00;99.90;;;;;;5037566;28;20469;-73
2022/10/23 00:26:33;;;;;;;37.15;18.95;;;10.00;99.90;;;;;;5054429;28;20087;-72
2022/10/23 00:28:59;;;;;;;30.35;17.33;;;10.00;99.90;;;;;;5054170;28;20076;-72
2022/10/23 00:31:25;;;;;;;28.85;17.35;;;9.90;99.90;;;;;;5054313;28;20045;-71
2022/10/23 00:33:51;;;;;;;34.90;18.33;;;9.90;99.90;;;;;;5055101;28;20063;-72
2022/10/23 00:36:19;;;;;;;39.33;17.77;;;9.90;99.90;;;;;;5054456;28;20124;-71
2022/10/23 00:38:44;;;;;;;37.47;21.30;;;9.90;99.90;;;;;;5055009;28;20379;-71
2022/10/23 00:41:16;;;;;;;31.27;18.33;;;10.20;99.90;;;;;;5054113;28;20052;-72
2022/10/23 00:44:09;;;;;;;34.78;19.40;;;10.00;99.90;;;;;;5054409;28;20041;-72
2022/10/23 00:46:37;;;;;;;29.27;17.77;;;10.00;99.90;;;;;;5056453;28;20045;-72
2022/10/23 00:49:03;;;;;;;36.90;19.50;;;9.90;99.90;;;;;;5058253;28;20504;-72
2022/10/23 00:51:34;;;;;;;43.20;21.27;;;10.00;99.90;;;;;;5058185;28;20055;-72
2022/10/23 00:54:02;;;;;;;31.27;18.98;;;10.00;99.90;;;;;;5057938;28;20045;-72
2022/10/23 00:56:29;;;;;;;34.85;21.63;;;9.90;99.90;;;;;;5058121;28;20064;-71
2022/10/23 00:58:55;;;;;;;40.33;20.63;;;9.90;99.90;;;;;;5058101;28;20033;-71
2022/10/23 01:01:22;;;;;;;33.03;19.02;;;10.00;99.90;;;;;;5040970;28;20121;-72
2022/10/23 01:03:48;;;;;;;36.38;18.30;;;10.00;99.90;;;;;;5058073;28;20055;-71
2022/10/23 01:06:42;;;;;;;37.65;20.90;;;9.90;99.90;;;;;;5057780;28;20041;-71
2022/10/23 01:09:31;;;;;;;56.80;25.23;;;10.00;99.90;;;;;;5057753;28;20056;-71
2022/10/23 01:12:20;;;;;;;32.53;20.92;;;10.00;99.90;;;;;;5057763;28;20438;-72
2022/10/23 01:15:28;;;;;;;36.22;19.00;;;10.00;99.90;;;;;;5046846;28;20052;-71
2022/10/23 01:18:10;;;;;;;37.28;21.90;;;10.00;99.90;;;;;;4977104;28;20062;-71
2022/10/23 01:20:54;;;;;;;40.42;23.73;;;10.00;99.90;;;;;;5049971;28;20056;-73
2022/10/23 01:23:57;;;;;;;42.00;22.00;;;10.00;99.90;;;;;;5057881;28;20081;-72
2022/10/23 01:26:51;;;;;;;39.05;20.73;;;10.00;99.90;;;;;;5057634;28;20123;-73
2022/10/23 01:29:24;;;;;;;53.92;25.02;;;10.00;99.90;;;;;;5057355;28;20083;-72
2022/10/23 01:32:02;;;;;;;47.90;25.50;;;10.00;99.90;;;;;;5040264;28;20488;-71
2022/10/23 01:34:34;;;;;;;39.05;22.55;;;10.00;99.90;;;;;;5057731;28;20064;-72
2022/10/23 01:37:02;;;;;;;49.47;25.63;;;9.90;99.90;;;;;;5057418;28;20083;-72
2022/10/23 01:39:37;;;;;;;38.08;23.48;;;9.90;99.90;;;;;;5039896;28;20449;-71
2022/10/23 01:42:09;;;;;;;56.33;21.88;;;9.90;99.90;;;;;;5057001;28;20488;-72
2022/10/23 01:44:45;;;;;;;39.67;18.92;;;9.90;99.90;;;;;;5057482;28;20365;-72
2022/10/23 01:47:14;;;;;;;40.28;18.40;;;9.90;99.90;;;;;;5057184;28;20049;-71
2022/10/23 01:49:41;;;;;;;35.75;20.17;;;9.90;99.90;;;;;;5039799;28;20041;-72
2022/10/23 01:52:11;;;;;;;27.95;17.95;;;9.90;99.90;;;;;;5057032;28;20041;-72
2022/10/23 01:54:41;;;;;;;34.90;18.15;;;9.80;99.90;;;;;;5056978;28;20045;-72
2022/10/23 01:57:11;;;;;;;42.58;22.88;;;9.90;99.90;;;;;;5039679;28;20052;-71
2022/10/23 01:59:42;;;;;;;36.00;19.48;;;9.80;99.90;;;;;;5056532;28;20094;-73
2022/10/23 02:02:09;;;;;;;37.05;22.25;;;10.00;99.90;;;;;;5056934;28;20045;-72
2022/10/23 02:04:45;;;;;;;32.60;18.95;;;9.80;99.90;;;;;;5056671;28;20465;-72
2022/10/23 02:07:11;;;;;;;36.63;20.52;;;9.80;99.90;;;;;;5056912;28;20123;-71
2022/10/23 02:09:37;;;;;;;48.85;25.17;;;9.80;99.90;;;;;;5039362;28;20442;-71
2022/10/23 02:12:09;;;;;;;37.13;21.58;;;9.70;99.90;;;;;;5056735;28;20136;-72
2022/10/23 02:15:05;;;;;;;37.95;22.25;;;9.70;99.90;;;;;;5056629;28;20119;-71
2022/10/23 02:17:50;;;;;;;39.92;21.20;;;9.80;99.90;;;;;;5056598;28;20056;-71
2022/10/23 02:20:24;;;;;;;34.47;19.27;;;9.70;99.90;;;;;;5056608;28;20037;-71
2022/10/23 02:23:27;;;;;;;43.47;22.33;;;9.70;99.90;;;;;;5056522;28;20469;-73
2022/10/23 02:26:19;;;;;;;33.30;21.30;;;9.70;99.90;;;;;;5031983;28;20063;-71
2022/10/23 02:28:50;;;;;;;40.67;21.85;;;9.70;99.90;;;;;;5056246;28;20056;-71
2022/10/23 02:31:20;;;;;;;45.45;23.05;;;9.70;99.90;;;;;;5039070;28;20049;-71
2022/10/23 02:33:46;;;;;;;55.33;25.73;;;9.80;99.90;;;;;;5056255;28;20045;-73
2022/10/23 02:36:12;;;;;;;54.38;24.98;;;9.80;99.90;;;;;;5056815;28;20377;-72
2022/10/23 02:38:41;;;;;;;48.97;22.02;;;9.90;99.90;;;;;;5056253;28;20045;-72
2022/10/23 02:41:29;;;;;;;47.75;22.15;;;10.00;99.90;;;;;;5056034;28;20060;-71
2022/10/23 02:43:58;;;;;;;49.50;22.77;;;10.00;99.90;;;;;;5038578;28;20457;-72
2022/10/23 02:46:45;;;;;;;51.88;24.67;;;10.10;99.90;;;;;;5056017;28;20041;-72
2022/10/23 02:49:15;;;;;;;49.35;23.50;;;10.10;99.90;;;;;;5055943;28;20091;-71
2022/10/23 02:51:53;;;;;;;43.67;23.50;;;10.10;99.90;;;;;;5056554;28;20092;-72
2022/10/23 02:55:06;;;;;;;37.38;20.73;;;10.10;99.90;;;;;;5038446;28;20044;-72
2022/10/23 02:57:38;;;;;;;39.22;21.75;;;10.10;99.90;;;;;;4994960;28;20052;-72
2022/10/23 03:00:14;;;;;;;42.65;23.52;;;10.10;99.90;;;;;;5038716;28;20124;-72
2022/10/23 03:02:58;;;;;;;37.38;20.45;;;10.00;99.90;;;;;;5055773;28;20044;-72
2022/10/23 03:05:34;;;;;;;41.05;22.23;;;10.00;99.90;;;;;;5055596;28;20072;-72
2022/10/23 03:08:02;;;;;;;32.67;19.95;;;9.90;99.90;;;;;;5056240;28;20332;-72
2022/10/23 03:10:28;;;;;;;36.70;21.08;;;9.90;99.90;;;;;;5041542;28;20380;-72
2022/10/23 03:12:54;;;;;;;29.13;19.48;;;9.90;99.90;;;;;;5056113;28;20052;-72
2022/10/23 03:15:19;;;;;;;39.78;21.13;;;9.80;99.90;;;;;;5055912;28;20044;-72
2022/10/23 03:17:45;;;;;;;25.80;16.52;;;9.80;99.90;;;;;;5055642;28;20044;-72
2022/10/23 03:20:11;;;;;;;32.50;18.45;;;9.70;99.90;;;;;;5055682;28;20110;-72
2022/10/23 03:22:36;;;;;;;30.65;18.10;;;9.70;99.90;;;;;;5055923;28;20045;-71
2022/10/23 03:25:02;;;;;;;34.30;20.65;;;9.70;99.90;;;;;;5055348;28;20049;-72
2022/10/23 03:27:28;;;;;;;36.78;22.10;;;9.70;99.90;;;;;;5055760;28;20446;-72
2022/10/23 03:29:53;;;;;;;38.13;20.77;;;9.70;99.90;;;;;;5055246;28;20052;-73
2022/10/23 03:32:19;;;;;;;26.85;19.45;;;9.70;99.90;;;;;;5038120;28;20466;-72
2022/10/23 03:34:44;;;;;;;38.15;22.30;;;9.70;99.90;;;;;;5037949;28;20381;-73
2022/10/23 03:37:10;;;;;;;32.10;21.23;;;9.70;99.90;;;;;;5055146;28;20128;-71
2022/10/23 03:39:36;;;;;;;30.65;20.20;;;9.70;99.90;;;;;;5037836;28;20053;-72
2022/10/23 03:42:01;;;;;;;34.28;21.67;;;9.70;99.90;;;;;;5055694;28;20040;-71
2022/10/23 03:44:29;;;;;;;25.70;19.48;;;9.60;99.90;;;;;;5055414;28;20041;-73
2022/10/23 03:46:55;;;;;;;36.38;18.75;;;9.60;99.90;;;;;;5054757;28;20101;-72
2022/10/23 03:49:21;;;;;;;31.42;21.40;;;9.60;99.90;;;;;;5055152;28;20045;-72
2022/10/23 03:51:51;;;;;;;37.78;22.67;;;9.60;99.90;;;;;;5054937;28;20073;-72
2022/10/23 03:54:19;;;;;;;33.75;21.75;;;9.60;99.90;;;;;;5054780;28;20041;-72
2022/10/23 03:56:44;;;;;;;36.55;23.45;;;9.60;99.90;;;;;;5055481;28;20331;-71
2022/10/23 03:59:10;;;;;;;42.22;25.80;;;9.70;99.90;;;;;;5054694;28;20124;-73
2022/10/23 04:01:36;;;;;;;35.53;23.42;;;9.60;99.90;;;;;;5054642;28;20037;-72
2022/10/23 04:04:01;;;;;;;38.72;20.75;;;9.50;99.90;;;;;;5054810;28;20059;-71
2022/10/23 04:06:27;;;;;;;35.88;22.52;;;9.80;99.90;;;;;;5054684;28;20052;-72
2022/10/23 04:08:52;;;;;;;41.92;24.40;;;9.50;99.90;;;;;;5054496;28;20060;-71
2022/10/23 04:11:18;;;;;;;40.38;25.48;;;9.50;99.90;;;;;;5054860;28;20049;-72
2022/10/23 04:13:43;;;;;;;52.08;28.05;;;9.50;99.90;;;;;;5055065;28;20040;-72
2022/10/23 04:16:09;;;;;;;48.25;28.58;;;9.50;99.90;;;;;;5054685;28;20397;-72
2022/10/23 04:18:34;;;;;;;49.75;26.75;;;9.50;99.90;;;;;;5054630;28;20103;-72
2022/10/23 04:21:00;;;;;;;46.08;25.60;;;9.50;99.90;;;;;;5038056;28;20052;-72
2022/10/23 04:23:26;;;;;;;47.53;29.30;;;9.50;99.90;;;;;;5041270;28;20079;-71
2022/10/23 04:25:55;;;;;;;61.00;32.53;;;9.50;99.90;;;;;;5041945;28;20358;-72
2022/10/23 04:28:21;;;;;;;58.40;31.35;;;9.60;99.90;;;;;;5058583;28;20102;-72
2022/10/23 04:30:46;;;;;;;58.65;31.02;;;9.60;99.90;;;;;;5058472;28;20045;-72
2022/10/23 04:33:12;;;;;;;58.08;34.17;;;9.80;99.90;;;;;;5059149;28;20132;-71
2022/10/23 04:35:37;;;;;;;61.97;33.78;;;9.90;99.90;;;;;;5058598;28;20049;-71
2022/10/23 04:38:03;;;;;;;64.60;32.28;;;9.70;99.90;;;;;;5058416;28;20072;-71
2022/10/23 04:40:29;;;;;;;62.90;31.92;;;9.60;99.90;;;;;;5058955;28;20041;-72
2022/10/23 04:42:54;;;;;;;68.15;34.70;;;9.60;99.90;;;;;;5058758;28;20037;-71
2022/10/23 04:45:20;;;;;;;62.45;34.85;;;9.60;99.90;;;;;;5058768;28;20041;-71
2022/10/23 04:47:45;;;;;;;69.15;35.80;;;9.70;99.90;;;;;;5058303;28;20047;-71
2022/10/23 04:50:12;;;;;;;63.03;33.60;;;9.70;99.90;;;;;;5058246;28;20288;-72
2022/10/23 04:52:37;;;;;;;49.38;30.75;;;9.70;99.90;;;;;;5058147;28;20485;-71
2022/10/23 04:55:05;;;;;;;69.63;33.88;;;9.60;99.90;;;;;;5058664;28;20045;-72
2022/10/23 04:57:31;;;;;;;61.90;29.58;;;9.60;99.90;;;;;;5058118;28;20118;-72
2022/10/23 04:59:56;;;;;;;47.05;26.40;;;9.60;99.90;;;;;;5058284;28;20029;-72
2022/10/23 05:02:23;;;;;;;52.13;29.75;;;9.60;99.90;;;;;;5058262;28;20056;-72
2022/10/23 05:04:49;;;;;;;59.35;28.83;;;9.50;99.90;;;;;;5058039;28;20049;-72
2022/10/23 05:07:15;;;;;;;55.78;32.65;;;9.60;99.90;;;;;;5040332;28;20060;-71
2022/10/23 05:09:41;;;;;;;65.53;31.67;;;9.50;99.90;;;;;;5058582;28;20057;-72
2022/10/23 05:12:06;;;;;;;65.03;32.90;;;9.60;99.90;;;;;;5057800;28;20450;-71
2022/10/23 05:14:32;;;;;;;56.60;30.98;;;9.70;99.90;;;;;;5057851;28;20136;-71
2022/10/23 05:17:01;;;;;;;63.65;34.83;;;9.60;99.90;;;;;;5057980;28;20112;-72
2022/10/23 05:19:34;;;;;;;63.15;33.80;;;9.60;99.90;;;;;;5057785;28;20056;-72
2022/10/23 05:22:01;;;;;;;59.50;32.15;;;9.70;99.90;;;;;;5058289;28;20116;-71
2022/10/23 05:24:26;;;;;;;45.15;26.77;;;9.70;99.90;;;;;;5039853;28;20102;-72
2022/10/23 05:26:53;;;;;;;51.53;31.52;;;9.70;99.90;;;;;;5057573;28;20056;-71
2022/10/23 05:29:19;;;;;;;64.43;34.97;;;9.70;99.90;;;;;;5040292;28;20076;-72
2022/10/23 05:31:45;;;;;;;62.53;33.05;;;9.70;99.90;;;;;;5057726;28;20051;-71
2022/10/23 05:34:14;;;;;;;64.70;33.78;;;9.70;99.90;;;;;;5057499;28;20361;-72
2022/10/23 05:36:40;;;;;;;70.63;35.33;;;9.80;99.90;;;;;;5057105;28;20453;-72
2022/10/23 05:39:05;;;;;;;72.45;34.17;;;9.70;99.90;;;;;;5040051;28;20060;-72
2022/10/23 05:41:31;;;;;;;63.97;32.20;;;9.70;99.90;;;;;;5039834;28;20059;-73
2022/10/23 05:43:57;;;;;;;73.22;34.25;;;9.70;99.90;;;;;;5039875;28;20040;-71
2022/10/23 05:46:23;;;;;;;83.43;39.45;;;9.70;99.90;;;;;;5057311;28;20045;-71
2022/10/23 05:48:50;;;;;;;74.07;36.40;;;9.70;99.90;;;;;;5056743;28;20045;-72
2022/10/23 05:51:19;;;;;;;63.50;34.72;;;9.70;99.90;;;;;;5057593;28;20365;-72
2022/10/23 05:53:45;;;;;;;52.33;30.48;;;9.70;99.90;;;;;;5057119;28;20136;-71
2022/10/23 05:56:11;;;;;;;78.68;33.72;;;9.60;99.90;;;;;;5057134;28;20080;-71
2022/10/23 05:58:37;;;;;;;66.38;34.30;;;9.60;99.90;;;;;;5057134;28;20067;-72
2022/10/23 06:01:07;;;;;;;75.60;35.28;;;9.60;99.90;;;;;;5056869;28;20040;-71
2022/10/23 06:03:34;;;;;;;71.22;35.13;;;9.60;99.90;;;;;;5056876;28;20045;-72
2022/10/23 06:05:59;;;;;;;65.60;33.13;;;9.70;99.90;;;;;;5056914;28;20045;-71
2022/10/23 06:08:25;;;;;;;54.50;33.53;;;9.70;99.90;;;;;;5056574;28;20127;-72
2022/10/23 06:10:50;;;;;;;63.85;35.88;;;9.70;99.90;;;;;;5005953;28;20053;-72
2022/10/23 06:13:16;;;;;;;60.92;31.48;;;9.70;99.90;;;;;;5056871;28;20052;-71
2022/10/23 06:15:42;;;;;;;58.95;31.88;;;9.70;99.90;;;;;;5056827;28;20084;-72
2022/10/23 06:18:07;;;;;;;63.58;33.40;;;9.70;99.90;;;;;;5056573;28;20354;-72
2022/10/23 06:20:36;;;;;;;61.80;33.88;;;9.70;99.90;;;;;;5057115;28;20041;-71
2022/10/23 06:23:03;;;;;;;75.65;35.95;;;9.70;99.90;;;;;;5056357;28;20422;-71
2022/10/23 06:25:29;;;;;;;62.15;33.10;;;9.70;99.90;;;;;;5056955;28;20049;-71
2022/10/23 06:27:55;;;;;;;58.20;31.70;;;9.70;99.90;;;;;;5056408;28;20095;-71
2022/10/23 06:30:20;;;;;;;64.93;34.70;;;9.70;99.90;;;;;;5056432;28;20040;-72
2022/10/23 06:32:46;;;;;;;70.03;35.25;;;9.70;99.90;;;;;;5038984;28;20063;-72
2022/10/23 06:35:12;;;;;;;65.80;33.15;;;9.80;99.90;;;;;;5056153;28;20037;-71
2022/10/23 06:37:37;;;;;;;63.25;32.80;;;9.70;99.90;;;;;;5056782;28;20037;-71
2022/10/23 06:40:04;;;;;;;62.10;32.95;;;9.80;99.90;;;;;;5056145;28;20499;-72
2022/10/23 06:42:29;;;;;;;58.40;33.40;;;9.80;99.90;;;;;;5056128;28;20126;-72
2022/10/23 06:44:56;;;;;;;65.35;34.78;;;9.90;99.90;;;;;;5055515;28;20461;-70
2022/10/23 06:47:21;;;;;;;64.45;35.33;;;10.00;99.90;;;;;;5055891;28;20049;-72
2022/10/23 06:49:47;;;;;;;60.58;34.67;;;10.00;99.90;;;;;;5055881;28;20378;-72
2022/10/23 06:52:12;;;;;;;67.28;33.97;;;10.00;99.90;;;;;;5055848;28;20041;-71
2022/10/23 06:54:38;;;;;;;65.55;33.22;;;10.10;99.90;;;;;;5056312;28;20045;-72
2022/10/23 06:57:03;;;;;;;66.38;34.88;;;10.10;99.90;;;;;;5055800;28;20055;-72
2022/10/23 06:59:29;;;;;;;58.88;31.02;;;10.10;99.90;;;;;;5056316;28;20048;-71
2022/10/23 07:01:54;;;;;;;63.28;33.65;;;10.10;99.90;;;;;;5038205;28;20060;-71
2022/10/23 07:04:20;;;;;;;63.58;33.80;;;10.20;99.90;;;;;;5055787;28;20132;-72
2022/10/23 07:06:46;;;;;;;61.95;32.75;;;10.20;99.90;;;;;;5055674;28;20142;-71
2022/10/23 07:09:11;;;;;;;67.82;33.20;;;10.40;99.90;;;;;;5055788;28;20057;-72
2022/10/23 07:11:37;;;;;;;61.88;31.90;;;10.30;99.90;;;;;;5038137;28;20428;-72
2022/10/23 07:14:02;;;;;;;62.83;33.20;;;10.40;99.90;;;;;;5055521;28;20076;-72
2022/10/23 07:16:28;;;;;;;61.97;32.58;;;10.30;99.90;;;;;;5055423;28;20044;-72
2022/10/23 07:18:59;;;;;;;61.65;32.58;;;10.40;99.90;;;;;;5055460;28;20065;-72
2022/10/23 07:21:27;;;;;;;50.35;30.20;;;10.40;99.90;;;;;;5055423;28;20056;-72
2022/10/23 07:23:53;;;;;;;51.90;30.65;;;10.60;99.90;;;;;;5055295;28;20055;-71
2022/10/23 07:26:19;;;;;;;55.88;28.65;;;10.80;99.90;;;;;;5055515;28;20116;-71
2022/10/23 07:28:47;;;;;;;48.15;27.70;;;10.50;99.90;;;;;;5055159;28;20037;-72
2022/10/23 07:31:13;;;;;;;47.47;27.25;;;10.60;99.90;;;;;;5037865;28;20128;-72
2022/10/23 07:33:39;;;;;;;50.65;28.52;;;10.60;99.90;;;;;;5055215;28;20063;-72
2022/10/23 07:36:06;;;;;;;51.65;28.40;;;10.70;99.90;;;;;;5038007;28;20091;-71
2022/10/23 07:38:32;;;;;;;48.88;27.73;;;10.70;99.90;;;;;;5055049;28;20049;-72
2022/10/23 07:40:58;;;;;;;42.90;25.23;;;10.80;99.90;;;;;;5055104;28;20044;-71
2022/10/23 07:43:24;;;;;;;46.65;25.77;;;10.80;99.90;;;;;;5055118;28;20114;-72
2022/10/23 07:45:51;;;;;;;38.20;25.02;;;10.90;99.90;;;;;;5055190;28;20045;-72
2022/10/23 07:48:17;;;;;;;44.78;25.30;;;10.80;99.90;;;;;;5055457;28;20037;-71
2022/10/23 07:50:43;;;;;;;39.05;23.65;;;10.90;99.90;;;;;;5055223;28;20041;-72
2022/10/23 07:53:36;;;;;;;39.47;24.08;;;10.90;99.90;;;;;;5055456;28;20451;-71
2022/10/23 07:56:04;;;;;;;41.30;23.42;;;11.10;99.90;;;;;;5050329;28;20539;-72
2022/10/23 07:58:29;;;;;;;35.45;21.90;;;11.00;99.90;;;;;;5055264;28;20056;-72
2022/10/23 08:01:02;;;;;;;29.25;20.35;;;11.00;99.90;;;;;;5054930;28;20041;-71
2022/10/23 08:03:31;;;;;;;32.08;20.83;;;11.10;99.90;;;;;;5054819;28;20052;-71
2022/10/23 08:05:57;;;;;;;30.05;20.52;;;11.10;99.90;;;;;;5055305;28;20396;-72
2022/10/23 08:08:24;;;;;;;35.78;20.30;;;11.20;99.90;;;;;;5054468;28;20053;-72
2022/10/23 08:10:51;;;;;;;34.88;20.40;;;11.10;99.90;;;;;;5054578;28;20115;-71
2022/10/23 08:13:19;;;;;;;26.88;19.02;;;11.20;99.90;;;;;;5054618;28;20055;-71
2022/10/23 08:15:46;;;;;;;29.13;18.17;;;11.20;99.90;;;;;;5037195;28;20343;-72
2022/10/23 08:18:12;;;;;;;27.20;19.33;;;11.20;99.90;;;;;;5054444;28;20052;-72
2022/10/23 08:20:42;;;;;;;31.70;18.63;;;11.30;99.90;;;;;;5054632;28;20049;-71
2022/10/23 08:23:08;;;;;;;25.70;17.67;;;11.40;99.90;;;;;;5054526;28;20048;-71
2022/10/23 08:25:34;;;;;;;30.40;17.42;;;11.40;99.90;;;;;;5054238;28;20119;-71
2022/10/23 08:28:00;;;;;;;31.98;16.95;;;11.50;99.90;;;;;;5054406;28;20450;-72
2022/10/23 08:30:26;;;;;;;24.25;16.77;;;11.50;99.90;;;;;;5054593;28;20076;-71
2022/10/23 08:32:51;;;;;;;32.53;17.83;;;11.60;99.90;;;;;;5054496;28;20051;-72
2022/10/23 08:35:17;;;;;;;27.63;15.88;;;11.70;99.90;;;;;;5054637;28;20119;-71
2022/10/23 08:37:43;;;;;;;25.13;15.05;;;11.80;99.90;;;;;;5054230;28;20049;-72
2022/10/23 08:40:18;;;;;;;23.83;13.80;;;11.90;99.90;;;;;;5054632;28;20040;-71
2022/10/23 08:42:51;;;;;;;22.30;13.65;;;12.00;99.90;;;;;;5037043;28;20120;-72
2022/10/23 08:45:47;;;;;;;19.08;13.20;;;12.10;99.90;;;;;;5036969;28;20095;-72
2022/10/23 08:48:20;;;;;;;23.15;13.45;;;12.20;99.90;;;;;;5054266;28;20128;-71
2022/10/23 08:50:51;;;;;;;19.83;13.17;;;12.30;99.90;;;;;;5054338;28;20099;-72
2022/10/23 08:53:44;;;;;;;33.08;14.18;;;12.40;99.90;;;;;;5054306;28;20037;-72
2022/10/23 08:56:36;;;;;;;26.02;13.55;;;12.50;99.90;;;;;;5054295;28;20132;-71
2022/10/23 08:59:21;;;;;;;23.30;13.88;;;12.60;99.90;;;;;;5054202;28;20473;-72
2022/10/23 09:01:54;;;;;;;30.08;13.85;;;12.70;99.90;;;;;;5054263;28;20370;-72
2022/10/23 09:04:20;;;;;;;24.20;13.00;;;12.80;99.90;;;;;;5054433;28;20037;-72
2022/10/23 09:06:57;;;;;;;18.58;11.45;;;12.80;99.90;;;;;;5037513;28;20061;-71
2022/10/23 09:09:44;;;;;;;20.60;12.80;;;12.90;99.90;;;;;;5057901;28;20076;-72
2022/10/23 09:12:13;;;;;;;20.30;12.18;;;13.00;99.90;;;;;;5057675;28;20041;-71
2022/10/23 09:14:59;;;;;;;23.35;11.93;;;13.00;99.90;;;;;;5057816;28;20044;-73
2022/10/23 09:17:39;;;;;;;19.65;10.07;;;13.10;99.90;;;;;;5043859;28;20049;-72
2022/10/23 09:20:23;;;;;;;19.95;10.82;;;13.10;99.90;;;;;;5040676;28;20045;-71
2022/10/23 09:22:52;;;;;;;;;;;13.20;99.90;;;;;;5058130;28;20045;-72
2022/10/23 09:25:21;;;;;;;17.60;10.68;;;13.30;99.90;;;;;;5057611;28;19920;-72
2022/10/23 09:27:49;;;;;;;16.63;10.35;;;13.40;99.90;;;;;;5057518;28;20465;-72
2022/10/23 09:30:48;;;;;;;16.35;9.65;;;13.50;99.90;;;;;;5057419;28;20045;-73
2022/10/23 09:33:15;;;;;;;18.60;9.43;;;13.60;99.90;;;;;;5014217;28;20067;-72
2022/10/23 09:35:59;;;;;;;17.05;9.20;;;13.60;99.90;;;;;;5057437;28;20045;-72
2022/10/23 09:38:55;;;;;;;20.20;9.73;;;13.70;99.90;;;;;;5057544;28;20049;-71
2022/10/23 09:41:35;;;;;;;14.38;8.75;;;13.80;99.90;;;;;;5057413;28;20143;-71
2022/10/23 09:44:06;;;;;;;18.15;9.38;;;13.90;99.90;;;;;;5057439;28;20044;-72
2022/10/23 09:46:47;;;;;;;14.32;7.45;;;14.00;99.90;;;;;;5057249;28;20128;-73
2022/10/23 09:49:24;;;;;;;17.70;7.65;;;13.90;99.90;;;;;;5057302;28;20110;-71
2022/10/23 09:52:03;;;;;;;14.25;7.90;;;14.00;99.90;;;;;;5040393;28;20124;-71
2022/10/23 09:54:37;;;;;;;15.88;7.75;;;14.10;99.90;;;;;;5057053;28;20191;-73
2022/10/23 09:57:18;;;;;;;;;;;14.20;99.90;;;;;;5057446;28;20119;-73
2022/10/23 10:00:00;;;;;;;12.43;7.57;;;14.10;99.90;;;;;;5057008;28;19931;-73
2022/10/23 10:02:32;;;;;;;16.48;7.38;;;14.20;99.90;;;;;;5039364;28;20044;-73
2022/10/23 10:04:58;;;;;;;14.95;7.78;;;14.30;99.90;;;;;;5056741;28;20040;-72
2022/10/23 10:07:29;;;;;;;13.57;7.28;;;14.30;99.90;;;;;;5056818;28;20052;-70
2022/10/23 10:09:56;;;;;;;15.25;6.80;;;14.30;99.90;;;;;;5057255;28;20049;-71
2022/10/23 10:12:47;;;;;;;10.55;6.53;;;14.30;99.90;;;;;;5039254;28;20091;-71
2022/10/23 10:15:37;;;;;;;11.80;6.22;;;14.50;99.90;;;;;;5057232;28;20128;-71
2022/10/23 10:18:16;;;;;;;18.85;7.30;;;14.60;99.90;;;;;;5056226;28;20037;-72
2022/10/23 10:20:48;;;;;;;13.90;6.60;;;14.60;99.90;;;;;;5056287;28;20068;-71
2022/10/23 10:23:34;;;;;;;12.02;6.55;;;14.70;99.90;;;;;;5057035;28;20338;-70
2022/10/23 10:26:21;;;;;;;14.40;6.47;;;14.80;99.90;;;;;;5056371;28;20047;-70
2022/10/23 10:29:08;;;;;;;12.35;5.82;;;14.80;99.90;;;;;;5056290;28;20052;-70
2022/10/23 10:31:45;;;;;;;19.95;6.22;;;14.90;99.90;;;;;;5056330;28;20040;-73
2022/10/23 10:34:20;;;;;;;16.95;6.03;;;15.00;99.90;;;;;;5056375;28;20064;-70
2022/10/23 10:37:24;;;;;;;12.35;5.47;;;15.10;99.90;;;;;;5056055;28;20044;-70
2022/10/23 10:40:17;;;;;;;17.17;5.38;;;15.20;99.90;;;;;;5055392;28;20063;-71
2022/10/23 10:43:09;;;;;;;16.00;5.20;;;15.40;99.90;;;;;;5056800;28;20202;-72
2022/10/23 10:46:17;;;;;;;10.88;5.57;;;15.50;99.90;;;;;;5056243;28;20045;-70
2022/10/23 10:49:00;;;;;;;12.55;5.30;;;15.60;99.90;;;;;;5038622;28;20049;-71
2022/10/23 10:51:37;;;;;;;9.80;5.20;;;15.70;99.90;;;;;;5056232;28;20432;-70
2022/10/23 10:54:29;;;;;;;14.13;5.57;;;15.70;99.90;;;;;;5055918;28;20045;-70
2022/10/23 10:56:59;;;;;;;11.40;5.57;;;15.70;99.90;;;;;;5055840;28;20365;-71
2022/10/23 10:59:29;;;;;;;12.38;5.68;;;15.80;99.90;;;;;;5055614;28;20037;-70
2022/10/23 11:02:12;;;;;;;26.20;5.72;;;15.80;99.90;;;;;;5055550;28;20037;-70
2022/10/23 11:04:47;;;;;;;10.18;5.50;;;15.80;99.90;;;;;;5055721;28;20044;-70
2022/10/23 11:07:20;;;;;;;9.63;5.10;;;15.80;99.90;;;;;;5055649;28;20057;-70
2022/10/23 11:09:46;;;;;;;16.50;5.55;;;15.70;99.90;;;;;;5055809;28;20049;-71
2022/10/23 11:12:19;;;;;;;13.27;5.32;;;15.90;99.90;;;;;;5055341;28;20068;-70
2022/10/23 11:14:44;;;;;;;10.13;5.72;;;15.90;99.90;;;;;;5055523;28;20095;-70
2022/10/23 11:17:17;;;;;;;9.55;5.57;;;15.90;99.90;;;;;;5037986;28;20080;-71
2022/10/23 11:20:01;;;;;;;11.35;5.15;;;16.00;99.90;;;;;;5055277;28;20088;-71
2022/10/23 11:22:50;;;;;;;16.55;5.78;;;16.00;99.90;;;;;;5055380;28;20040;-71
2022/10/23 11:25:38;;;;;;;9.95;4.65;;;16.00;99.90;;;;;;5054972;28;20484;-72
2022/10/23 11:28:33;;;;;;;10.40;5.00;;;16.10;99.90;;;;;;5055618;28;20037;-71
2022/10/23 11:31:17;;;;;;;14.93;5.32;;;16.10;99.90;;;;;;5054995;28;20045;-71
2022/10/23 11:34:21;;;;;;;9.57;5.25;;;16.00;99.90;;;;;;5055142;28;20049;-71
2022/10/23 11:36:53;;;;;;;9.70;4.63;;;16.00;99.90;;;;;;5055059;28;20052;-70
2022/10/23 11:39:38;;;;;;;15.88;5.32;;;16.00;99.90;;;;;;5055013;28;20041;-71
2022/10/23 11:42:04;;;;;;;8.40;4.70;;;15.90;99.90;;;;;;5055635;28;20116;-70
2022/10/23 11:44:40;;;;;;;12.07;5.45;;;16.00;99.90;;;;;;5054879;28;20056;-72
2022/10/23 11:47:26;;;;;;;8.95;4.78;;;16.00;99.90;;;;;;5055107;28;20078;-72
2022/10/23 11:50:07;;;;;;;15.35;5.15;;;15.90;99.90;;;;;;5040610;28;20139;-71
2022/10/23 11:52:57;;;;;;;12.48;5.05;;;15.90;99.90;;;;;;5054885;28;20381;-70
2022/10/23 11:55:25;;;;;;;13.10;4.68;;;15.90;99.90;;;;;;5054843;28;20059;-72
2022/10/23 11:58:21;;;;;;;12.45;5.25;;;15.90;99.90;;;;;;5054735;28;20465;-72
2022/10/23 12:01:25;;;;;;;12.95;5.32;;;15.90;99.90;;;;;;5052640;28;20052;-71
2022/10/23 12:04:02;;;;;;;17.20;5.43;;;15.90;99.90;;;;;;5054758;28;20057;-71
2022/10/23 12:06:49;;;;;;;12.45;4.82;;;15.90;99.90;;;;;;5054689;28;20146;-72
2022/10/23 12:09:29;;;;;;;9.57;4.80;;;16.00;99.90;;;;;;5054747;28;20385;-71
2022/10/23 12:12:06;;;;;;;26.50;5.45;;;16.00;99.90;;;;;;5054663;28;20373;-72
2022/10/23 12:14:41;;;;;;;18.35;10.35;;;16.00;99.90;;;;;;5054534;28;20048;-71
2022/10/23 12:17:22;;;;;;;13.48;5.25;;;15.90;99.90;;;;;;5054216;28;20068;-71
2022/10/23 12:19:53;;;;;;;10.30;4.22;;;16.00;99.90;;;;;;5054612;28;20072;-72
2022/10/23 12:22:24;;;;;;;11.30;4.18;;;16.10;99.90;;;;;;5054470;28;20091;-71
2022/10/23 12:25:36;;;;;;;12.32;4.40;;;16.10;99.90;;;;;;5054416;28;20045;-71
2022/10/23 12:28:26;;;;;;;7.78;3.78;;;16.10;99.90;;;;;;4974302;28;20086;-71
2022/10/23 12:31:28;;;;;;;17.52;4.50;;;16.20;99.90;;;;;;5054608;28;20053;-71
2022/10/23 12:34:33;;;;;;;12.15;4.63;;;16.20;99.90;;;;;;5054458;28;20041;-71
2022/10/23 12:37:05;;;;;;;9.68;4.05;;;16.30;99.90;;;;;;5054191;28;20064;-71
2022/10/23 12:39:36;;;;;;;13.98;3.75;;;16.30;99.90;;;;;;5054869;28;20056;-71
2022/10/23 12:42:02;;;;;;;11.10;3.95;;;16.30;99.90;;;;;;5055737;28;20049;-70
2022/10/23 12:44:29;;;;;;;10.38;4.13;;;16.40;99.90;;;;;;5041378;28;20128;-72
2022/10/23 12:47:00;;;;;;;9.57;3.97;;;16.40;99.90;;;;;;5058667;28;20120;-71
2022/10/23 12:49:30;;;;;;;8.40;3.88;;;16.60;99.90;;;;;;5058240;28;20044;-71
2022/10/23 12:52:04;;;;;;;11.52;4.22;;;16.40;99.90;;;;;;5058200;28;20041;-71
2022/10/23 12:54:32;;;;;;;7.07;3.83;;;16.40;99.90;;;;;;5058069;28;20045;-72
2022/10/23 12:56:58;;;;;;;10.95;3.92;;;16.40;99.90;;;;;;5058657;28;20365;-71
2022/10/23 12:59:37;;;;;;;12.70;4.47;;;16.40;99.90;;;;;;5058081;28;20048;-72
2022/10/23 13:02:18;;;;;;;9.80;4.00;;;16.40;99.90;;;;;;5040665;28;20403;-70
2022/10/23 13:04:44;;;;;;;22.77;4.35;;;16.40;99.90;;;;;;5058133;28;20114;-71